Time;durP1;ratioP1;P1;durP2;ratioP2;P2;SDS_P1;SDS_P2;PMS_P1;PMS_P2;Temp;Humidity;BMP_temperature;BMP_pressure;BME280_temperature;BME280_humidity;BME280_pressure;Samples;Min_cycle;Max_cycle;Signal;HPM_P1;HPM_P2
2022/12/23 00:04:54;;;;;;;8.05;5.43;;;13.40;83.70;;;;;;21343657;27;20069;-59
2022/12/23 00:15:05;;;;;;;8.80;5.63;;;13.40;83.50;;;;;;21343665;27;20049;-58
2022/12/23 00:25:07;;;;;;;11.45;6.70;;;13.50;83.30;;;;;;21341271;27;20055;-59
2022/12/23 00:35:09;;;;;;;8.48;6.30;;;13.40;83.50;;;;;;21339871;27;20121;-57
2022/12/23 00:45:17;;;;;;;10.80;7.53;;;13.30;83.60;;;;;;21340088;27;20064;-62
2022/12/23 00:55:19;;;;;;;7.45;5.93;;;13.30;83.90;;;;;;21339355;27;20046;-63
2022/12/23 01:05:36;;;;;;;10.38;7.00;;;13.30;84.00;;;;;;21319541;27;20138;-56
2022/12/23 01:15:37;;;;;;;10.75;6.25;;;13.20;84.20;;;;;;21337534;27;20050;-57
2022/12/23 01:25:41;;;;;;;10.40;6.27;;;13.30;84.00;;;;;;21336440;27;20051;-58
2022/12/23 01:35:43;;;;;;;8.80;6.15;;;13.30;84.00;;;;;;21337186;27;20130;-57
2022/12/23 01:45:45;;;;;;;8.88;5.95;;;13.30;84.20;;;;;;21335340;27;20127;-59
2022/12/23 01:56:07;;;;;;;8.27;5.20;;;13.30;84.40;;;;;;21335145;27;20046;-58
2022/12/23 02:17:13;;;;;;;6.68;4.47;;;13.10;85.00;;;;;;21319685;27;20049;-57
2022/12/23 02:27:55;;;;;;;6.65;4.25;;;13.20;85.20;;;;;;21332718;27;20051;-57
2022/12/23 02:38:19;;;;;;;7.00;4.05;;;13.10;85.10;;;;;;21333008;27;20556;-57
2022/12/23 02:48:29;;;;;;;7.70;5.03;;;13.10;85.40;;;;;;21333093;27;20047;-58
2022/12/23 02:58:41;;;;;;;8.40;5.57;;;13.10;85.40;;;;;;21341040;27;20383;-57
2022/12/23 03:08:53;;;;;;;8.32;5.63;;;13.00;85.80;;;;;;21348516;27;20074;-58
2022/12/23 03:19:19;;;;;;;10.27;6.03;;;13.10;85.90;;;;;;21347004;27;20091;-57
2022/12/23 03:29:34;;;;;;;10.27;5.60;;;13.20;85.80;;;;;;21346296;27;20051;-58
2022/12/23 03:39:53;;;;;;;7.78;4.43;;;13.20;85.80;;;;;;21348112;27;20488;-58
2022/12/23 03:50:04;;;;;;;7.18;3.50;;;13.20;85.90;;;;;;21344645;27;20204;-56
2022/12/23 04:00:09;;;;;;;6.50;3.72;;;13.20;86.00;;;;;;21344170;27;20055;-58
2022/12/23 04:10:13;;;;;;;;;;;13.20;85.80;;;;;;21344142;27;20054;-57
2022/12/23 04:20:18;;;;;;;7.90;3.88;;;13.20;85.60;;;;;;21342428;27;19970;-58
2022/12/23 04:30:20;;;;;;;11.43;6.47;;;13.20;85.30;;;;;;21341756;27;20049;-57
2022/12/23 04:40:23;;;;;;;11.60;5.60;;;13.20;85.40;;;;;;21340513;27;20130;-57
2022/12/23 04:50:40;;;;;;;3.95;2.42;;;13.20;85.50;;;;;;21339988;27;20089;-58
2022/12/23 05:00:43;;;;;;;3.28;2.10;;;13.20;85.60;;;;;;21339274;27;20463;-61
2022/12/23 05:10:45;;;;;;;4.03;2.67;;;13.10;85.60;;;;;;21338413;27;20092;-63
2022/12/23 05:20:49;;;;;;;3.55;1.80;;;13.10;85.60;;;;;;21337021;27;20161;-62
2022/12/23 05:31:04;;;;;;;7.07;4.65;;;13.00;85.50;;;;;;21337183;27;20121;-58
2022/12/23 05:41:10;;;;;;;2.63;1.60;;;13.00;85.40;;;;;;21335969;27;20051;-56
2022/12/23 05:51:14;;;;;;;4.00;2.00;;;13.00;85.40;;;;;;21334099;27;20046;-57
2022/12/23 06:01:17;;;;;;;5.70;1.95;;;13.00;85.20;;;;;;21333962;27;20043;-58
2022/12/23 06:11:20;;;;;;;7.45;2.00;;;13.00;84.90;;;;;;21333413;27;20050;-58
2022/12/23 06:21:27;;;;;;;2.90;2.03;;;13.10;84.50;;;;;;21332759;27;20074;-59
2022/12/23 06:31:43;;;;;;;4.03;2.25;;;13.00;84.60;;;;;;21338525;27;20088;-59
2022/12/23 06:41:57;;;;;;;8.02;3.45;;;13.20;84.00;;;;;;21349931;27;20399;-60
2022/12/23 06:52:01;;;;;;;7.80;4.43;;;13.20;83.50;;;;;;21349147;27;20518;-57
2022/12/23 07:02:04;;;;;;;5.00;2.20;;;13.00;83.60;;;;;;21347770;27;20054;-60
2022/12/23 07:12:07;;;;;;;4.50;1.80;;;13.20;83.70;;;;;;21348244;27;20390;-57
2022/12/23 07:22:10;;;;;;;2.13;1.45;;;13.10;83.60;;;;;;21347561;27;20046;-61
2022/12/23 07:32:12;;;;;;;4.40;1.85;;;13.00;83.50;;;;;;21345441;27;20103;-58
2022/12/23 07:42:14;;;;;;;3.15;1.40;;;13.00;83.20;;;;;;21343131;27;20054;-59
2022/12/23 07:52:17;;;;;;;7.18;2.40;;;13.10;82.30;;;;;;21344440;27;20039;-60
2022/12/23 08:02:23;;;;;;;10.02;5.93;;;13.00;82.80;;;;;;21324767;27;20054;-59
2022/12/23 08:12:25;;;;;;;3.15;1.50;;;13.00;83.20;;;;;;21342980;27;20046;-60
2022/12/23 08:22:27;;;;;;;2.97;1.63;;;13.00;83.50;;;;;;21341780;27;20134;-59
2022/12/23 08:32:29;;;;;;;3.30;1.60;;;13.00;83.60;;;;;;21340672;27;20043;-61
2022/12/23 08:42:32;;;;;;;5.57;2.90;;;13.10;83.10;;;;;;21340377;27;20522;-61
2022/12/23 08:52:33;;;;;;;3.60;2.00;;;13.10;82.70;;;;;;21340729;27;20081;-57
2022/12/23 09:02:36;;;;;;;4.32;2.20;;;13.10;83.10;;;;;;21320383;27;20085;-59
2022/12/23 09:12:37;;;;;;;7.30;4.63;;;13.10;83.40;;;;;;21338869;27;20451;-59
2022/12/23 09:22:39;;;;;;;6.70;5.68;;;13.10;83.00;;;;;;21337861;27;20050;-61
2022/12/23 09:32:41;;;;;;;9.30;5.55;;;13.20;82.50;;;;;;21337269;27;20061;-57
2022/12/23 09:43:15;;;;;;;3.33;1.70;;;13.20;82.30;;;;;;21334568;27;20143;-56
2022/12/23 09:53:20;;;;;;;4.57;1.60;;;13.20;81.90;;;;;;20904653;28;20467;-57
2022/12/23 10:03:30;;;;;;;5.53;1.90;;;13.20;81.20;;;;;;20902708;28;20055;-57
2022/12/23 10:13:37;;;;;;;5.28;3.20;;;13.20;82.30;;;;;;20886885;28;20179;-57
2022/12/23 10:23:42;;;;;;;4.40;3.55;;;13.30;82.50;;;;;;21057567;27;20050;-57
2022/12/23 10:34:13;;;;;;;2.67;1.63;;;13.30;82.60;;;;;;21333687;27;20478;-57
2022/12/23 10:44:18;;;;;;;1.88;1.15;;;13.50;80.90;;;;;;21331404;27;20401;-58
2022/12/23 10:54:25;;;;;;;6.20;2.40;;;13.40;81.40;;;;;;21332209;27;20096;-58
2022/12/23 11:04:35;;;;;;;11.05;3.70;;;13.50;81.10;;;;;;21331902;27;20065;-57
2022/12/23 11:14:50;;;;;;;1.48;0.82;;;13.50;81.50;;;;;;21331825;27;20046;-57
2022/12/23 11:24:52;;;;;;;3.47;1.92;;;13.50;81.00;;;;;;21347590;27;20054;-58
2022/12/23 11:34:55;;;;;;;3.00;1.20;;;13.50;80.90;;;;;;21345339;27;20053;-58
2022/12/23 11:44:59;;;;;;;2.55;1.00;;;13.60;79.80;;;;;;21344662;27;20055;-58
2022/12/23 11:55:04;;;;;;;2.67;1.02;;;13.70;79.40;;;;;;21325848;27;20043;-55
2022/12/23 12:05:20;;;;;;;;;;;14.10;77.20;;;;;;21249495;27;20136;-57
2022/12/23 12:15:52;;;;;;;9.73;8.73;;;15.00;75.00;;;;;;21170718;28;19920;-53
2022/12/23 12:26:10;;;;;;;3.53;2.53;;;15.30;72.40;;;;;;21224089;27;20062;-57
2022/12/23 12:36:45;;;;;;;2.65;1.58;;;15.20;72.10;;;;;;21283272;27;20078;-56
2022/12/23 12:46:53;;;;;;;2.45;1.60;;;15.50;72.20;;;;;;21244972;27;20051;-57
2022/12/23 12:56:57;;;;;;;6.10;3.70;;;15.40;72.10;;;;;;21338780;27;20475;-57
2022/12/23 13:07:36;;;;;;;6.17;3.20;;;14.60;74.80;;;;;;21338078;27;20428;-56
2022/12/23 13:17:56;;;;;;;3.40;2.47;;;14.30;76.20;;;;;;20988585;28;20045;-56
2022/12/23 13:28:23;;;;;;;2.80;2.25;;;14.30;76.90;;;;;;20989152;28;20053;-67
2022/12/23 13:38:43;;;;;;;5.00;3.00;;;14.20;76.10;;;;;;20971643;28;20049;-68
2022/12/23 13:49:05;;;;;;;4.68;2.05;;;14.20;76.00;;;;;;21076276;27;20513;-69
2022/12/23 13:59:11;;;;;;;2.70;2.05;;;14.20;76.60;;;;;;21335883;27;20047;-56
2022/12/23 14:09:15;;;;;;;2.50;1.60;;;14.00;77.30;;;;;;21336044;27;20058;-68
2022/12/23 14:19:35;;;;;;;5.27;2.20;;;14.10;76.40;;;;;;21335118;27;20066;-69
2022/12/23 14:29:46;;;;;;;3.40;2.22;;;14.20;76.20;;;;;;21333701;27;20053;-56
2022/12/23 14:39:49;;;;;;;2.20;1.55;;;14.10;76.60;;;;;;21332719;27;20046;-57
2022/12/23 14:49:51;;;;;;;2.78;1.80;;;14.00;75.40;;;;;;21332644;27;20050;-65
2022/12/23 15:00:01;;;;;;;3.58;1.70;;;14.00;75.40;;;;;;21349929;27;20073;-69
2022/12/23 15:10:06;;;;;;;4.05;2.80;;;14.10;74.80;;;;;;21349208;27;20050;-59
2022/12/23 15:20:17;;;;;;;3.67;1.65;;;14.10;74.40;;;;;;21329218;27;20043;-56
2022/12/23 15:30:20;;;;;;;3.72;2.00;;;14.10;74.80;;;;;;21347267;27;20447;-54
2022/12/23 15:40:30;;;;;;;3.70;2.50;;;14.00;74.70;;;;;;21328393;27;20043;-56
2022/12/23 15:50:40;;;;;;;4.40;2.50;;;14.10;74.90;;;;;;21345574;27;20043;-66
2022/12/23 16:00:54;;;;;;;5.10;3.30;;;14.10;74.50;;;;;;21346926;27;20125;-66
2022/12/23 16:11:17;;;;;;;4.83;2.60;;;14.00;74.90;;;;;;21347999;27;20531;-65
2022/12/23 16:21:26;;;;;;;6.47;2.90;;;13.90;75.50;;;;;;21344254;27;20382;-70
2022/12/23 16:31:28;;;;;;;4.57;3.10;;;13.80;75.70;;;;;;21342321;27;20124;-68
2022/12/23 16:41:29;;;;;;;7.68;4.07;;;13.70;75.70;;;;;;21341358;27;20111;-56
2022/12/23 16:51:32;;;;;;;6.00;3.47;;;13.70;76.00;;;;;;21340508;27;20085;-56
2022/12/23 17:01:38;;;;;;;5.78;4.47;;;13.80;75.60;;;;;;21318557;27;20495;-59
2022/12/23 17:11:45;;;;;;;5.35;3.30;;;13.80;75.80;;;;;;21253859;27;20058;-56
2022/12/23 17:21:51;;;;;;;11.18;5.57;;;13.80;75.30;;;;;;21251192;27;20047;-59
2022/12/23 17:31:53;;;;;;;8.07;4.60;;;13.70;75.80;;;;;;21252622;27;20467;-59
2022/12/23 17:41:55;;;;;;;10.10;5.72;;;13.70;76.50;;;;;;21249752;27;20047;-55
2022/12/23 17:51:56;;;;;;;8.73;4.43;;;13.60;76.90;;;;;;21250247;27;20050;-56
2022/12/23 18:01:58;;;;;;;7.43;4.10;;;13.60;76.90;;;;;;21249378;27;20081;-63
2022/12/23 18:12:00;;;;;;;5.78;3.83;;;13.50;77.40;;;;;;21250664;27;20054;-62
2022/12/23 18:22:02;;;;;;;7.97;4.15;;;13.50;77.00;;;;;;21249622;27;20054;-68
2022/12/23 18:32:04;;;;;;;8.98;4.50;;;13.50;77.10;;;;;;21248232;27;20097;-63
2022/12/23 18:42:11;;;;;;;8.27;5.03;;;13.40;77.50;;;;;;21247928;28;20414;-61
2022/12/23 18:52:13;;;;;;;10.40;6.00;;;13.40;77.00;;;;;;21246965;28;20061;-68
2022/12/23 19:02:15;;;;;;;11.43;7.32;;;13.40;77.20;;;;;;21246176;28;20055;-65
2022/12/23 19:12:18;;;;;;;8.40;6.10;;;13.60;77.20;;;;;;21246509;28;20162;-56
2022/12/23 19:22:20;;;;;;;10.38;6.53;;;13.50;76.90;;;;;;21250250;28;20054;-55
2022/12/23 19:32:22;;;;;;;11.10;6.60;;;13.50;77.00;;;;;;21245140;28;20088;-56
2022/12/23 19:42:24;;;;;;;13.35;6.75;;;13.50;77.00;;;;;;21252526;27;20067;-56
2022/12/23 19:52:26;;;;;;;21.05;14.90;;;13.50;76.90;;;;;;21259218;27;20124;-55
2022/12/23 20:02:28;;;;;;;11.57;6.45;;;13.50;77.00;;;;;;21257047;27;20116;-58
2022/12/23 20:12:29;;;;;;;12.80;8.00;;;13.40;77.00;;;;;;21255798;27;20046;-61
2022/12/23 20:22:31;;;;;;;13.32;7.90;;;13.40;77.30;;;;;;21256816;27;20506;-63
2022/12/23 20:32:34;;;;;;;11.38;7.18;;;13.50;77.20;;;;;;21236910;27;20138;-55
2022/12/23 20:42:35;;;;;;;12.55;6.90;;;13.40;77.20;;;;;;21253668;27;20497;-59
2022/12/23 20:52:37;;;;;;;10.05;7.35;;;13.30;77.40;;;;;;21253526;27;20097;-57
2022/12/23 21:02:40;;;;;;;10.55;7.20;;;13.10;78.00;;;;;;21265939;27;20467;-69
2022/12/23 21:12:42;;;;;;;12.07;6.68;;;13.10;78.00;;;;;;21338607;27;20494;-64
2022/12/23 21:22:45;;;;;;;12.00;7.10;;;13.10;77.70;;;;;;21339126;27;20050;-69
2022/12/23 21:32:46;;;;;;;11.90;7.38;;;13.00;78.10;;;;;;21337397;27;20098;-56
2022/12/23 21:42:48;;;;;;;12.07;7.07;;;12.90;78.20;;;;;;21335222;27;20054;-63
2022/12/23 21:52:51;;;;;;;10.45;6.82;;;13.00;78.10;;;;;;21334606;27;20050;-57
2022/12/23 22:02:53;;;;;;;11.52;7.50;;;12.90;78.10;;;;;;21300683;27;20059;-57
2022/12/23 22:12:55;;;;;;;12.07;8.60;;;12.90;78.10;;;;;;21248053;27;20051;-56
2022/12/23 22:22:57;;;;;;;14.45;9.32;;;12.90;78.20;;;;;;21249041;27;20055;-61
2022/12/23 22:33:00;;;;;;;13.23;8.73;;;13.00;78.20;;;;;;21248122;28;20043;-58
2022/12/23 22:43:02;;;;;;;15.70;8.38;;;13.00;78.40;;;;;;21230297;28;20130;-68
2022/12/23 22:53:04;;;;;;;17.08;8.02;;;12.90;78.50;;;;;;21246844;28;20185;-60
2022/12/23 23:03:06;;;;;;;14.98;9.35;;;13.00;78.40;;;;;;21262623;27;20054;-57
2022/12/23 23:13:08;;;;;;;13.13;8.50;;;13.00;78.40;;;;;;21337507;27;20475;-58
2022/12/23 23:23:10;;;;;;;13.52;8.45;;;12.90;78.80;;;;;;21349356;27;20046;-58
2022/12/23 23:33:13;;;;;;;12.68;8.80;;;12.90;79.00;;;;;;21346961;27;20049;-70
2022/12/23 23:43:15;;;;;;;16.00;9.38;;;12.90;79.10;;;;;;21346918;27;20187;-63
2022/12/23 23:53:16;;;;;;;14.00;9.85;;;12.90;79.20;;;;;;21346002;27;20079;-58
